Time;durP1;ratioP1;P1;durP2;ratioP2;P2;SDS_P1;SDS_P2;PMS_P1;PMS_P2;Temp;Humidity;BMP_temperature;BMP_pressure;BME280_temperature;BME280_humidity;BME280_pressure;Samples;Min_cycle;Max_cycle;Signal;HPM_P1;HPM_P2
2023/07/12 00:00:18;;;;;;;16.55;9.25;;;;;;;21.78;81.08;95469.69;5033666;28;20253;-74
2023/07/12 00:02:44;;;;;;;14.30;8.65;;;;;;;21.74;81.09;95467.78;5033162;28;20237;-74
2023/07/12 00:05:09;;;;;;;16.00;9.05;;;;;;;21.76;81.32;95463.81;5020268;28;20760;-74
2023/07/12 00:07:35;;;;;;;18.58;9.35;;;;;;;21.69;82.29;95462.41;5017247;28;20232;-74
2023/07/12 00:10:01;;;;;;;15.13;8.93;;;;;;;21.79;81.51;95463.31;5049536;28;20233;-73
2023/07/12 00:12:27;;;;;;;14.70;9.20;;;;;;;21.77;81.43;95465.44;5028026;28;20244;-73
2023/07/12 00:14:52;;;;;;;15.13;9.15;;;;;;;21.75;81.27;95467.56;5030071;28;20677;-74
2023/07/12 00:17:21;;;;;;;14.07;8.85;;;;;;;21.65;81.33;95459.47;5001037;28;20223;-74
2023/07/12 00:19:47;;;;;;;17.88;9.38;;;;;;;21.63;81.91;95450.94;5032143;28;20883;-74
2023/07/12 00:22:12;;;;;;;16.02;9.07;;;;;;;21.64;81.74;95457.84;5018824;28;20259;-75
2023/07/12 00:24:37;;;;;;;18.50;9.32;;;;;;;21.51;82.47;95454.84;5025679;28;20226;-74
2023/07/12 00:27:03;;;;;;;14.80;9.10;;;;;;;21.45;82.61;95451.31;5029812;28;20227;-74
2023/07/12 00:29:28;;;;;;;16.70;8.70;;;;;;;21.47;82.17;95455.34;5026452;28;20254;-75
2023/07/12 00:31:54;;;;;;;13.98;9.25;;;;;;;21.35;81.94;95444.03;5036226;28;20260;-75
2023/07/12 00:34:19;;;;;;;14.20;8.82;;;;;;;21.44;81.71;95445.19;5001296;28;20251;-75
2023/07/12 00:36:45;;;;;;;13.93;8.73;;;;;;;21.62;81.10;95440.53;5034944;28;20229;-75
2023/07/12 00:39:11;;;;;;;15.18;8.75;;;;;;;21.69;81.07;95441.91;5022377;28;20695;-75
2023/07/12 00:42:14;;;;;;;13.20;8.50;;;;;;;21.53;81.23;95437.53;5022704;28;20324;-75
2023/07/12 00:44:47;;;;;;;15.90;8.63;;;;;;;21.71;80.76;95433.69;5027996;28;20260;-75
2023/07/12 00:47:13;;;;;;;20.83;9.10;;;;;;;21.63;80.95;95434.16;5024750;28;20309;-75
2023/07/12 00:49:38;;;;;;;16.25;8.93;;;;;;;21.59;81.07;95435.72;5027472;28;20253;-75
2023/07/12 00:52:16;;;;;;;14.65;8.90;;;;;;;21.51;81.51;95436.19;5004724;28;20222;-75
2023/07/12 00:55:00;;;;;;;14.95;8.75;;;;;;;21.47;81.99;95436.69;5039525;28;20245;-75
2023/07/12 00:57:26;;;;;;;15.57;9.02;;;;;;;21.49;81.84;95437.22;5029228;28;20221;-75
2023/07/12 00:59:54;;;;;;;15.20;8.90;;;;;;;21.46;81.54;95439.63;5029364;28;20340;-75
2023/07/12 01:02:23;;;;;;;14.85;9.07;;;;;;;21.51;81.52;95436.19;5008828;28;20226;-75
2023/07/12 01:04:48;;;;;;;14.77;8.80;;;;;;;21.42;82.17;95439.31;5021760;28;20654;-75
2023/07/12 01:07:14;;;;;;;14.13;8.80;;;;;;;21.34;81.92;95433.66;5041169;28;20225;-75
2023/07/12 01:09:40;;;;;;;15.38;8.48;;;;;;;21.45;81.61;95436.13;5038908;28;20233;-75
2023/07/12 01:12:05;;;;;;;13.07;8.70;;;;;;;21.43;80.80;95427.59;5052304;28;20647;-75
2023/07/12 01:14:31;;;;;;;17.30;8.23;;;;;;;21.25;81.99;95428.00;5034313;28;20236;-75
2023/07/12 01:17:05;;;;;;;14.32;8.20;;;;;;;21.20;82.53;95430.59;5030836;28;20245;-75
2023/07/12 01:19:31;;;;;;;12.70;8.43;;;;;;;21.05;83.10;95427.00;5037792;28;20230;-75
2023/07/12 01:21:57;;;;;;;14.48;8.82;;;;;;;21.06;83.37;95416.09;5035736;28;20954;-75
2023/07/12 01:24:24;;;;;;;13.63;8.40;;;;;;;21.09;83.17;95426.22;5018868;28;20621;-75
2023/07/12 01:26:53;;;;;;;14.10;8.55;;;;;;;21.03;83.65;95421.09;5022352;28;20332;-75
2023/07/12 01:29:19;;;;;;;13.27;8.35;;;;;;;21.03;83.34;95424.56;5033579;28;20292;-75
2023/07/12 01:31:45;;;;;;;16.25;8.70;;;;;;;21.11;83.43;95428.66;5045155;28;20226;-75
2023/07/12 01:34:11;;;;;;;13.25;8.45;;;;;;;20.99;84.07;95425.31;5036562;28;20234;-75
2023/07/12 01:36:37;;;;;;;12.63;8.50;;;;;;;21.04;83.80;95433.34;5034807;28;20233;-75
2023/07/12 01:39:03;;;;;;;14.60;8.85;;;;;;;21.04;83.88;95434.13;5033044;28;20610;-75
2023/07/12 01:41:29;;;;;;;14.82;8.35;;;;;;;20.98;83.96;95434.34;5032290;28;20225;-76
2023/07/12 01:43:54;;;;;;;15.23;8.55;;;;;;;20.92;84.39;95422.84;5036211;28;20240;-75
2023/07/12 01:46:20;;;;;;;12.90;8.60;;;;;;;20.86;85.13;95431.84;5051624;28;20231;-75
2023/07/12 01:48:45;;;;;;;16.08;8.55;;;;;;;20.95;84.20;95427.66;5030602;28;20289;-75
2023/07/12 01:51:11;;;;;;;15.18;8.38;;;;;;;21.04;84.06;95436.00;5033766;28;20721;-75
2023/07/12 01:53:36;;;;;;;15.93;8.65;;;;;;;20.89;84.94;95435.84;5053365;28;20302;-75
2023/07/12 01:56:02;;;;;;;13.60;8.18;;;;;;;20.92;85.22;95443.34;5045586;28;20229;-75
2023/07/12 01:58:28;;;;;;;13.75;8.70;;;;;;;20.93;84.85;95443.09;5040061;28;20264;-75
2023/07/12 02:00:54;;;;;;;14.05;8.98;;;;;;;20.67;86.27;95438.53;5048568;28;20229;-75
2023/07/12 02:03:19;;;;;;;18.23;8.85;;;;;;;20.73;86.38;95438.34;5035466;28;20759;-74
2023/07/12 02:05:45;;;;;;;14.13;8.65;;;;;;;20.82;85.88;95441.38;5033328;28;20228;-75
2023/07/12 02:08:10;;;;;;;13.63;8.77;;;;;;;20.64;86.65;95433.72;5040080;28;20706;-75
2023/07/12 02:10:36;;;;;;;18.57;8.70;;;;;;;20.74;86.45;95439.16;5032597;28;20239;-75
2023/07/12 02:13:01;;;;;;;16.25;8.75;;;;;;;20.74;86.38;95442.63;5026835;28;20229;-75
2023/07/12 02:15:27;;;;;;;15.85;8.80;;;;;;;20.73;86.43;95453.50;5028254;28;20278;-74
2023/07/12 02:17:52;;;;;;;14.97;8.93;;;;;;;20.83;85.29;95458.94;5045527;28;20225;-75
2023/07/12 02:20:18;;;;;;;15.20;9.40;;;;;;;20.48;86.62;95456.69;5042816;28;20288;-75
2023/07/12 02:22:44;;;;;;;16.42;9.57;;;;;;;20.42;86.80;95460.31;5031223;28;20316;-75
2023/07/12 02:25:10;;;;;;;14.75;9.23;;;;;;;20.51;86.92;95461.53;5021682;28;20690;-75
2023/07/12 02:27:37;;;;;;;16.77;9.90;;;;;;;20.71;85.65;95461.75;5031774;28;20303;-75
2023/07/12 02:30:04;;;;;;;18.43;10.40;;;;;;;20.58;85.78;95461.31;5026118;28;20230;-74
2023/07/12 02:32:30;;;;;;;16.83;10.30;;;;;;;20.65;85.75;95459.28;5048012;28;20233;-75
2023/07/12 02:34:55;;;;;;;18.00;10.37;;;;;;;20.73;84.87;95464.13;5052271;28;20233;-75
2023/07/12 02:37:21;;;;;;;20.87;11.10;;;;;;;20.60;85.96;95461.88;5050054;28;20667;-75
2023/07/12 02:39:46;;;;;;;16.87;10.60;;;;;;;20.53;86.41;95454.09;5015889;28;20244;-75
2023/07/12 02:42:12;;;;;;;18.00;10.88;;;;;;;20.64;85.55;95465.63;5049350;28;20263;-75
2023/07/12 02:44:39;;;;;;;22.97;10.97;;;;;;;20.47;86.69;95470.22;5051924;28;20240;-75
2023/07/12 02:47:06;;;;;;;18.02;11.27;;;;;;;20.32;87.10;95473.50;5025774;28;20279;-74
2023/07/12 02:49:31;;;;;;;17.60;10.85;;;;;;;20.34;87.72;95481.22;5029752;28;20229;-74
2023/07/12 02:51:57;;;;;;;20.80;10.33;;;;;;;20.39;87.39;95483.97;5008503;28;20240;-74
2023/07/12 02:54:22;;;;;;;17.23;10.40;;;;;;;20.29;88.26;95486.47;5028708;28;20226;-74
2023/07/12 02:56:47;;;;;;;18.17;10.23;;;;;;;20.40;87.91;95485.53;5061541;28;20232;-74
2023/07/12 02:59:13;;;;;;;20.87;10.53;;;;;;;20.41;88.23;95487.16;5024055;28;20259;-74
2023/07/12 03:01:38;;;;;;;15.70;10.10;;;;;;;20.38;88.45;95483.16;5056947;28;20703;-75
2023/07/12 03:04:04;;;;;;;17.77;10.17;;;;;;;20.33;88.71;95485.75;5046795;28;20230;-74
2023/07/12 03:06:29;;;;;;;17.88;10.00;;;;;;;20.36;89.09;95492.41;5021537;28;20696;-74
2023/07/12 03:08:55;;;;;;;20.80;10.63;;;;;;;20.36;89.89;95490.56;5005492;28;20234;-75
2023/07/12 03:11:20;;;;;;;16.90;10.30;;;;;;;20.30;90.15;95491.53;5029382;28;20302;-74
2023/07/12 03:13:46;;;;;;;18.13;10.10;;;;;;;20.26;90.56;95492.28;5018324;28;20757;-74
2023/07/12 03:16:11;;;;;;;16.38;10.02;;;;;;;20.24;90.60;95495.19;5020460;28;20294;-74
2023/07/12 03:18:37;;;;;;;19.02;10.43;;;;;;;20.36;90.22;95492.41;5018194;28;20221;-73
2023/07/12 03:21:04;;;;;;;18.35;10.57;;;;;;;20.31;90.53;95497.66;5033691;28;20280;-74
2023/07/12 03:23:29;;;;;;;14.88;10.20;;;;;;;20.32;90.79;95497.44;5020651;28;20232;-73
2023/07/12 03:25:55;;;;;;;15.52;9.95;;;;;;;20.14;91.56;95497.66;5012252;28;20233;-73
2023/07/12 03:28:21;;;;;;;20.35;10.50;;;;;;;20.07;92.20;95505.00;5034112;28;20229;-73
2023/07/12 03:31:06;;;;;;;16.27;10.27;;;;;;;20.46;89.94;95498.69;5017582;28;20237;-73
2023/07/12 03:33:32;;;;;;;18.65;10.50;;;;;;;20.57;89.05;95505.72;5021012;28;20239;-74
2023/07/12 03:35:57;;;;;;;16.63;10.88;;;;;;;20.55;89.29;95507.03;5024748;28;20248;-74
2023/07/12 03:38:26;;;;;;;18.90;10.60;;;;;;;20.32;90.95;95507.25;5019042;28;20240;-74
2023/07/12 03:40:53;;;;;;;15.77;10.50;;;;;;;20.45;89.57;95512.22;5027546;28;20625;-74
2023/07/12 03:43:18;;;;;;;20.58;10.75;;;;;;;20.58;88.95;95517.19;5019220;28;20233;-74
2023/07/12 03:45:44;;;;;;;16.50;10.27;;;;;;;20.72;87.53;95516.56;4998780;28;20221;-74
2023/07/12 03:48:09;;;;;;;21.85;10.77;;;;;;;20.68;88.28;95520.75;5012318;28;20997;-74
2023/07/12 03:50:39;;;;;;;17.30;10.70;;;;;;;20.81;87.98;95530.25;4993550;28;20229;-74
2023/07/12 03:53:04;;;;;;;16.02;10.18;;;;;;;20.76;88.52;95528.31;5009697;28;20249;-74
2023/07/12 03:55:29;;;;;;;18.35;10.88;;;;;;;20.67;89.02;95519.16;5032228;28;20234;-73
2023/07/12 03:57:55;;;;;;;18.45;11.05;;;;;;;20.78;88.12;95528.88;5025571;28;20231;-74
2023/07/12 04:00:20;;;;;;;19.70;10.57;;;;;;;20.78;88.44;95528.06;5021766;28;20227;-73
2023/07/12 04:02:47;;;;;;;18.50;10.98;;;;;;;20.82;88.13;95527.31;5009585;28;20250;-74
2023/07/12 04:05:12;;;;;;;16.67;10.85;;;;;;;20.73;88.40;95528.81;5016092;28;20230;-74
2023/07/12 04:07:38;;;;;;;17.27;11.20;;;;;;;20.76;88.62;95532.84;4998045;28;20969;-73
2023/07/12 04:10:04;;;;;;;17.48;10.88;;;;;;;20.55;89.45;95523.00;5030582;28;20222;-73
2023/07/12 04:12:30;;;;;;;22.73;10.68;;;;;;;20.64;89.59;95524.97;5034400;28;20768;-74
2023/07/12 04:14:57;;;;;;;18.30;10.88;;;;;;;20.66;89.43;95522.06;5014050;28;20260;-74
2023/07/12 04:17:22;;;;;;;18.23;11.20;;;;;;;20.72;89.48;95524.56;5008285;28;20214;-74
2023/07/12 04:19:48;;;;;;;17.77;10.93;;;;;;;20.77;89.35;95531.78;5008861;28;20501;-74
2023/07/12 04:22:13;;;;;;;19.80;11.53;;;;;;;20.69;89.69;95529.56;5015957;28;20222;-74
2023/07/12 04:24:39;;;;;;;19.00;11.43;;;;;;;20.79;88.99;95519.03;5012695;28;20303;-74
2023/07/12 04:27:04;;;;;;;17.80;10.93;;;;;;;20.87;89.17;95526.59;5016345;28;20229;-74
2023/07/12 04:29:30;;;;;;;20.33;11.40;;;;;;;20.85;89.74;95519.91;5019198;28;20225;-74
2023/07/12 04:31:55;;;;;;;16.27;10.85;;;;;;;20.89;89.71;95523.69;5037017;28;20234;-74
2023/07/12 04:34:21;;;;;;;22.57;11.83;;;;;;;20.93;89.96;95514.94;5038176;28;20226;-74
2023/07/12 04:36:46;;;;;;;18.58;11.20;;;;;;;21.10;89.23;95518.38;5029325;28;20242;-74
2023/07/12 04:39:12;;;;;;;18.30;11.43;;;;;;;21.12;88.81;95510.94;5008910;28;20269;-74
2023/07/12 04:41:37;;;;;;;18.02;11.52;;;;;;;21.16;88.24;95520.00;4990362;28;20237;-74
2023/07/12 04:44:03;;;;;;;23.45;11.68;;;;;;;21.24;86.67;95521.44;5008450;28;20686;-74
2023/07/12 04:46:28;;;;;;;17.23;11.43;;;;;;;21.35;86.79;95525.81;4990704;28;20226;-75
2023/07/12 04:48:54;;;;;;;20.42;11.57;;;;;;;21.10;88.41;95526.34;5031378;28;21034;-75
2023/07/12 04:51:20;;;;;;;19.67;11.40;;;;;;;21.24;88.35;95524.91;5009862;28;20222;-75
2023/07/12 04:53:47;;;;;;;19.42;11.93;;;;;;;21.32;87.89;95531.63;4998791;28;20244;-75
2023/07/12 04:56:14;;;;;;;20.17;12.15;;;;;;;21.33;87.75;95534.03;5010327;28;20725;-75
2023/07/12 04:58:40;;;;;;;22.95;12.90;;;;;;;21.57;85.33;95533.72;4998137;28;20277;-74
2023/07/12 05:01:05;;;;;;;23.63;12.98;;;;;;;21.62;85.28;95533.78;5021013;28;21110;-74
2023/07/12 05:03:31;;;;;;;21.63;12.63;;;;;;;21.62;85.57;95537.25;5011409;28;20308;-74
2023/07/12 05:05:57;;;;;;;22.63;12.43;;;;;;;21.77;84.81;95531.25;5043766;28;20244;-74
2023/07/12 05:08:23;;;;;;;21.08;12.25;;;;;;;21.88;83.83;95531.09;5018629;28;20242;-74
2023/07/12 05:10:48;;;;;;;20.92;12.18;;;;;;;21.91;82.42;95521.81;5008692;28;20282;-74
2023/07/12 05:13:14;;;;;;;20.17;12.45;;;;;;;21.89;82.06;95522.06;5009260;28;20240;-75
2023/07/12 05:15:39;;;;;;;23.75;12.38;;;;;;;21.74;83.43;95518.44;5013348;28;20232;-75
2023/07/12 05:18:05;;;;;;;25.10;11.90;;;;;;;21.90;83.56;95520.22;5011230;28;20754;-75
2023/07/12 05:20:31;;;;;;;20.00;11.88;;;;;;;21.86;82.76;95521.75;5016261;28;20276;-75
2023/07/12 05:22:56;;;;;;;23.10;11.70;;;;;;;22.17;81.98;95520.91;5028081;28;20309;-75
2023/07/12 05:25:22;;;;;;;23.50;12.25;;;;;;;22.10;82.23;95521.16;5012672;28;20222;-75
2023/07/12 05:27:47;;;;;;;20.23;11.70;;;;;;;22.32;81.48;95528.22;5041462;28;20710;-75
2023/07/12 05:30:13;;;;;;;18.77;11.95;;;;;;;22.41;81.33;95524.81;5029734;28;20222;-75
2023/07/12 05:32:40;;;;;;;23.65;12.27;;;;;;;;;;5028222;28;20230;-75
2023/07/12 05:35:06;;;;;;;21.10;12.40;;;;;;;22.72;79.04;95533.81;5023285;28;20226;-75
2023/07/12 05:37:32;;;;;;;22.50;13.35;;;;;;;22.75;79.29;95534.09;5027126;28;20279;-75
2023/07/12 05:39:58;;;;;;;25.30;13.85;;;;;;;22.81;78.97;95536.78;5022402;28;20230;-76
2023/07/12 05:42:23;;;;;;;25.10;13.27;;;;;;;22.79;79.14;95531.69;5013885;28;20307;-76
2023/07/12 05:44:49;;;;;;;24.55;13.35;;;;;;;22.88;78.02;95532.78;5005519;28;20245;-75
2023/07/12 05:47:15;;;;;;;25.63;13.82;;;;;;;23.08;76.96;95537.41;4997310;28;20289;-76
2023/07/12 05:49:41;;;;;;;25.98;14.40;;;;;;;23.03;77.13;95532.06;4997222;28;20266;-76
2023/07/12 05:52:06;;;;;;;25.08;13.85;;;;;;;23.01;77.13;95537.66;4995289;28;20340;-75
2023/07/12 05:54:32;;;;;;;21.92;12.93;;;;;;;23.09;78.25;95537.19;5025594;28;20310;-75
2023/07/12 05:56:57;;;;;;;24.70;12.43;;;;;;;23.09;78.58;95541.72;5010745;28;20840;-74
2023/07/12 05:59:23;;;;;;;24.08;13.05;;;;;;;23.15;78.85;95543.31;5029263;28;20236;-75
2023/07/12 06:01:49;;;;;;;22.65;13.27;;;;;;;23.15;77.08;95541.44;5022888;28;20271;-75
2023/07/12 06:04:14;;;;;;;21.08;12.95;;;;;;;23.18;77.63;95548.16;5016582;28;20234;-75
2023/07/12 06:06:40;;;;;;;21.95;12.63;;;;;;;23.24;77.46;95552.41;5001651;28;20307;-75
2023/07/12 06:09:06;;;;;;;21.70;12.88;;;;;;;23.35;77.13;95552.25;5051964;28;20240;-75
2023/07/12 06:11:31;;;;;;;21.98;12.23;;;;;;;23.39;76.23;95542.63;5027271;28;20232;-75
2023/07/12 06:13:57;;;;;;;24.27;13.48;;;;;;;23.30;76.05;95548.72;5032334;28;20236;-75
2023/07/12 06:16:22;;;;;;;23.33;13.32;;;;;;;23.25;75.85;95546.84;5045093;28;20229;-75
2023/07/12 06:18:48;;;;;;;18.92;13.73;;;;;;;23.32;75.73;95546.56;5047438;28;20237;-75
2023/07/12 06:21:13;;;;;;;23.52;12.70;;;;;;;23.48;77.14;95555.47;5013653;28;20233;-76
2023/07/12 06:23:38;;;;;;;22.83;13.30;;;;;;;23.53;74.78;95548.25;5024143;28;20804;-75
2023/07/12 06:26:05;;;;;;;26.02;14.15;;;;;;;23.49;74.50;95549.84;5026308;28;20270;-75
2023/07/12 06:28:31;;;;;;;27.25;13.73;;;;;;;23.61;74.88;95545.06;5014565;28;20229;-75
2023/07/12 06:30:56;;;;;;;26.63;13.13;;;;;;;23.80;74.31;95543.47;5028510;28;20276;-75
2023/07/12 06:33:22;;;;;;;27.52;12.50;;;;;;;23.91;74.54;95539.75;5042031;28;20241;-75
2023/07/12 06:35:47;;;;;;;25.27;12.75;;;;;;;23.99;73.99;95541.06;5016948;28;20230;-75
2023/07/12 06:38:13;;;;;;;22.38;12.73;;;;;;;24.07;73.73;95546.72;5025505;28;21493;-74
2023/07/12 06:40:39;;;;;;;23.65;12.63;;;;;;;24.05;74.93;95545.34;5025523;28;20312;-75
2023/07/12 06:43:04;;;;;;;22.40;12.52;;;;;;;24.10;73.30;95553.41;5021029;28;20229;-75
2023/07/12 06:45:30;;;;;;;22.05;12.48;;;;;;;24.18;73.67;95544.03;5025887;28;20243;-75
2023/07/12 06:47:55;;;;;;;26.58;13.40;;;;;;;24.19;72.57;95549.13;4988392;28;20234;-75
2023/07/12 06:50:21;;;;;;;24.45;12.23;;;;;;;24.22;72.40;95539.78;5001057;28;20751;-75
2023/07/12 06:52:47;;;;;;;23.58;12.70;;;;;;;24.25;71.92;95537.34;5014941;28;20238;-75
2023/07/12 06:55:12;;;;;;;22.73;12.88;;;;;;;24.27;71.63;95531.72;5027881;28;20233;-75
2023/07/12 06:57:38;;;;;;;23.50;13.20;;;;;;;24.31;71.06;95532.78;5014167;28;20606;-75
2023/07/12 07:00:05;;;;;;;23.90;12.65;;;;;;;24.45;72.93;95531.16;5029393;28;20841;-75
2023/07/12 07:02:31;;;;;;;21.80;13.27;;;;;;;24.58;71.17;95527.91;5007024;28;20233;-75
2023/07/12 07:04:56;;;;;;;19.13;11.68;;;;;;;24.58;71.75;95535.94;4995983;28;20393;-75
2023/07/12 07:07:21;;;;;;;26.05;13.88;;;;;;;24.76;72.22;95532.69;5021809;28;20243;-75
2023/07/12 07:09:47;;;;;;;21.02;13.10;;;;;;;24.78;70.84;95535.91;5027749;28;20234;-74
2023/07/12 07:12:13;;;;;;;21.85;13.27;;;;;;;24.78;70.77;95543.94;5025264;28;20229;-75
2023/07/12 07:14:38;;;;;;;23.27;13.07;;;;;;;24.83;72.66;95546.63;5022599;28;20250;-76
2023/07/12 07:17:04;;;;;;;19.25;13.20;;;;;;;24.85;69.98;95541.78;5045845;28;20316;-76
2023/07/12 07:19:29;;;;;;;19.42;12.82;;;;;;;24.93;69.75;95549.28;5010321;28;20225;-75
2023/07/12 07:21:55;;;;;;;19.90;12.20;;;;;;;24.96;71.01;95554.06;5026532;28;20238;-75
2023/07/12 07:24:20;;;;;;;24.05;12.93;;;;;;;25.11;70.55;95548.66;5031064;28;20279;-75
2023/07/12 07:26:46;;;;;;;18.63;12.63;;;;;;;25.21;70.79;95556.66;5025450;28;20226;-75
2023/07/12 07:29:11;;;;;;;19.35;11.43;;;;;;;25.23;70.18;95546.44;5045926;28;20229;-75
2023/07/12 07:31:37;;;;;;;24.45;12.43;;;;;;;25.19;70.36;95552.63;5014138;28;20230;-76
2023/07/12 07:34:04;;;;;;;19.60;12.25;;;;;;;25.29;71.83;95545.31;5029578;28;20230;-75
2023/07/12 07:36:29;;;;;;;23.65;12.48;;;;;;;25.32;70.56;95547.47;5027242;28;20228;-75
2023/07/12 07:38:55;;;;;;;18.65;12.45;;;;;;;25.39;69.84;95534.56;5030983;28;20237;-75
2023/07/12 07:41:20;;;;;;;24.08;14.05;;;;;;;25.46;71.54;95536.19;5013710;28;20251;-75
2023/07/12 07:43:46;;;;;;;20.23;12.25;;;;;;;25.65;68.27;95543.28;5023350;28;20621;-74
2023/07/12 07:46:12;;;;;;;22.38;12.35;;;;;;;25.69;67.04;95541.66;5039995;28;20225;-76
2023/07/12 07:48:38;;;;;;;19.45;12.82;;;;;;;25.74;66.15;95547.00;5033899;28;20263;-76
2023/07/12 07:51:03;;;;;;;22.58;13.13;;;;;;;25.65;66.77;95545.19;5053657;28;20652;-76
2023/07/12 07:53:29;;;;;;;20.20;11.77;;;;;;;25.69;67.25;95543.53;5045039;28;20221;-75
2023/07/12 07:55:54;;;;;;;22.13;12.32;;;;;;;25.77;68.23;95535.69;5026281;28;20230;-73
2023/07/12 07:58:21;;;;;;;21.75;12.50;;;;;;;25.87;67.62;95537.50;5046689;28;20356;-73
2023/07/12 08:00:46;;;;;;;22.38;12.73;;;;;;;26.05;66.15;95540.31;5049374;28;20237;-73
2023/07/12 08:03:12;;;;;;;18.83;12.10;;;;;;;26.02;66.02;95537.38;5007595;28;20229;-73
2023/07/12 08:05:38;;;;;;;19.75;12.07;;;;;;;26.08;65.06;95538.91;5047662;28;20317;-73
2023/07/12 08:08:03;;;;;;;22.58;12.45;;;;;;;26.11;65.23;95530.34;5018273;28;20230;-73
2023/07/12 08:10:29;;;;;;;20.60;12.20;;;;;;;26.19;66.95;95534.31;5025090;28;20218;-75
2023/07/12 08:12:57;;;;;;;19.13;12.50;;;;;;;26.26;66.46;95538.28;5018380;28;20276;-74
2023/07/12 08:15:22;;;;;;;18.98;12.43;;;;;;;26.17;66.23;95533.78;5014152;28;20225;-73
2023/07/12 08:17:48;;;;;;;23.30;13.18;;;;;;;26.35;66.86;95541.94;5020985;28;20230;-74
2023/07/12 08:20:14;;;;;;;21.92;12.82;;;;;;;26.58;66.02;95543.84;5031637;28;20767;-74
2023/07/12 08:22:39;;;;;;;22.63;12.52;;;;;;;26.63;66.74;95553.75;5007802;28;20230;-74
2023/07/12 08:25:05;;;;;;;21.13;12.82;;;;;;;26.64;65.85;95547.28;5014190;28;20372;-74
2023/07/12 08:27:30;;;;;;;23.05;13.02;;;;;;;26.72;67.64;95544.78;5031021;28;20230;-75
2023/07/12 08:29:58;;;;;;;23.40;12.77;;;;;;;26.86;65.45;95542.25;4997523;28;20225;-75
2023/07/12 08:32:27;;;;;;;18.02;12.20;;;;;;;26.94;65.60;95543.50;5010750;28;20225;-74
2023/07/12 08:34:56;;;;;;;21.33;13.32;;;;;;;26.96;64.73;95542.16;5026615;28;20705;-74
2023/07/12 08:37:22;;;;;;;18.75;12.63;;;;;;;26.92;64.95;95540.28;5012593;28;20226;-74
2023/07/12 08:39:47;;;;;;;19.00;13.35;;;;;;;27.04;63.99;95541.50;5029501;28;20252;-73
2023/07/12 08:42:25;;;;;;;22.80;13.00;;;;;;;27.14;63.09;95544.06;5019791;28;20325;-74
2023/07/12 08:44:51;;;;;;;20.52;13.20;;;;;;;27.27;61.92;95546.03;5016390;28;20229;-73
2023/07/12 08:47:26;;;;;;;30.08;13.40;;;;;;;27.27;64.23;95542.56;5015769;28;20248;-74
2023/07/12 08:49:52;;;;;;;21.80;13.02;;;;;;;27.40;62.26;95536.50;5028890;28;20237;-75
2023/07/12 08:52:19;;;;;;;23.42;13.20;;;;;;;27.45;63.13;95541.78;5016358;28;20231;-74
2023/07/12 08:54:44;;;;;;;21.77;13.35;;;;;;;27.55;63.33;95538.16;5001470;28;20234;-75
2023/07/12 08:57:23;;;;;;;25.98;12.80;;;;;;;27.78;62.20;95538.09;5017117;28;20314;-74
2023/07/12 09:00:05;;;;;;;25.98;13.13;;;;;;;27.79;61.99;95538.88;5006660;28;20234;-74
2023/07/12 09:02:31;;;;;;;21.15;13.18;;;;;;;27.78;63.75;95539.97;5030808;28;20335;-74
2023/07/12 09:04:58;;;;;;;22.52;12.63;;;;;;;27.87;61.99;95539.00;5024214;28;20266;-75
2023/07/12 09:07:31;;;;;;;22.95;13.07;;;;;;;28.11;59.34;95535.47;4996158;28;20215;-75
2023/07/12 09:09:58;;;;;;;22.85;12.80;;;;;;;28.18;62.28;95525.13;5017154;28;20273;-74
2023/07/12 09:12:32;;;;;;;18.98;12.63;;;;;;;28.22;60.81;95523.41;5012721;28;20221;-74
2023/07/12 09:15:07;;;;;;;20.33;12.90;;;;;;;28.27;61.18;95518.75;5013985;28;20315;-75
2023/07/12 09:17:39;;;;;;;23.58;13.00;;;;;;;28.41;60.58;95505.31;5031319;28;20226;-75
2023/07/12 09:20:19;;;;;;;21.65;12.60;;;;;;;28.44;61.47;95502.03;5018738;28;20235;-74
2023/07/12 09:22:45;;;;;;;23.38;12.48;;;;;;;28.54;62.21;95504.53;5024011;28;20316;-75
2023/07/12 09:25:18;;;;;;;19.33;12.52;;;;;;;28.81;62.00;95496.47;5029410;28;20240;-74
2023/07/12 09:27:46;;;;;;;20.58;12.15;;;;;;;28.89;58.44;95494.97;5013759;28;20263;-75
2023/07/12 09:30:11;;;;;;;18.58;11.65;;;;;;;29.12;57.24;95492.06;5037820;28;20225;-75
2023/07/12 09:32:37;;;;;;;26.20;12.23;;;;;;;29.10;58.61;95496.97;5027744;28;20618;-75
2023/07/12 09:35:04;;;;;;;21.00;12.40;;;;;;;29.14;57.62;95495.25;5027541;28;20234;-75
2023/07/12 09:37:34;;;;;;;18.73;11.82;;;;;;;29.12;58.67;95494.75;5016781;28;20222;-74
2023/07/12 09:40:01;;;;;;;18.67;11.55;;;;;;;29.07;59.63;95489.47;5020381;28;20244;-74
2023/07/12 09:42:28;;;;;;;20.10;11.75;;;;;;;29.19;57.47;95481.69;5033274;28;20226;-74
2023/07/12 09:44:53;;;;;;;19.30;11.80;;;;;;;29.33;57.43;95481.66;4999435;28;20238;-74
2023/07/12 09:47:43;;;;;;;18.95;11.90;;;;;;;29.23;58.40;95484.59;5038193;28;20729;-74
2023/07/12 09:50:11;;;;;;;21.15;12.07;;;;;;;29.42;57.03;95481.75;5028846;28;20250;-74
2023/07/12 09:52:47;;;;;;;19.27;11.02;;;;;;;29.52;56.63;95476.91;5033189;28;20259;-74
2023/07/12 09:55:25;;;;;;;18.48;10.68;;;;;;;29.71;54.90;95474.84;5001172;28;20269;-74
2023/07/12 09:57:50;;;;;;;20.35;10.25;;;;;;;29.94;54.16;95472.97;5026363;28;20608;-74
2023/07/12 10:00:23;;;;;;;16.55;10.15;;;;;;;29.99;55.59;95476.34;5024827;28;20260;-74
2023/07/12 10:03:10;;;;;;;17.40;10.90;;;;;;;30.28;54.56;95484.00;4997673;28;20230;-74
2023/07/12 10:05:36;;;;;;;17.70;10.60;;;;;;;30.22;54.15;95476.31;5014297;28;20820;-76
2023/07/12 10:08:09;;;;;;;16.92;10.55;;;;;;;30.24;54.94;95476.78;5011337;28;20295;-74
2023/07/12 10:10:57;;;;;;;19.88;11.13;;;;;;;30.18;53.45;95469.94;5013393;28;20251;-74
2023/07/12 10:13:40;;;;;;;18.52;9.70;;;;;;;30.32;53.50;95471.47;4998185;28;20230;-74
2023/07/12 10:16:19;;;;;;;17.77;9.95;;;;;;;30.27;53.51;95468.88;5001242;28;20229;-74
2023/07/12 10:18:45;;;;;;;19.15;9.52;;;;;;;30.44;52.40;95469.00;4997363;28;20237;-74
2023/07/12 10:21:15;;;;;;;15.82;9.77;;;;;;;30.67;50.46;95463.53;5013873;28;20233;-74
2023/07/12 10:23:48;;;;;;;15.95;9.52;;;;;;;30.82;51.17;95463.09;5010620;28;20237;-74
2023/07/12 10:26:14;;;;;;;18.63;9.77;;;;;;;30.84;52.51;95463.56;5030436;28;20229;-74
2023/07/12 10:28:58;;;;;;;14.45;9.02;;;;;;;31.09;49.93;95462.88;5035010;28;20821;-73
2023/07/12 10:31:36;;;;;;;13.23;8.52;;;;;;;31.07;47.31;95473.22;5039753;28;20232;-73
2023/07/12 10:34:28;;;;;;;14.35;8.27;;;;;;;31.04;47.96;95463.84;5045141;28;20321;-74
2023/07/12 10:36:55;;;;;;;12.73;8.57;;;;;;;31.25;49.43;95461.31;5022667;28;20333;-75
2023/07/12 10:39:24;;;;;;;14.77;8.18;;;;;;;31.20;47.80;95464.16;5026988;28;20254;-75
2023/07/12 10:42:19;;;;;;;18.60;8.23;;;;;;;31.19;47.61;95459.88;5037568;28;20725;-75
2023/07/12 10:44:49;;;;;;;17.33;8.50;;;;;;;31.29;48.02;95460.34;5037549;28;20229;-74
2023/07/12 10:47:15;;;;;;;15.35;8.48;;;;;;;31.40;47.13;95452.75;5018534;28;20228;-75
2023/07/12 10:49:52;;;;;;;12.18;8.20;;;;;;;31.44;48.70;95452.91;5020576;28;21049;-74
2023/07/12 10:52:36;;;;;;;13.77;8.10;;;;;;;31.72;45.84;95454.19;5044636;28;20324;-74
2023/07/12 10:55:06;;;;;;;14.70;8.68;;;;;;;31.85;45.81;95453.22;5047354;28;20433;-74
2023/07/12 10:57:46;;;;;;;18.08;8.30;;;;;;;31.63;45.39;95453.41;5050545;28;20263;-74
2023/07/12 11:00:30;;;;;;;15.70;8.32;;;;;;;31.58;46.75;95446.22;5034297;28;20235;-74
2023/07/12 11:03:11;;;;;;;12.70;7.93;;;;;;;31.69;46.54;95444.78;5035118;28;20244;-74
2023/07/12 11:05:56;;;;;;;11.18;7.68;;;;;;;31.91;44.75;95444.59;5058638;28;20232;-75
2023/07/12 11:08:30;;;;;;;13.63;7.97;;;;;;;32.02;44.89;95441.59;5044608;28;20259;-74
2023/07/12 11:10:59;;;;;;;11.35;7.97;;;;;;;31.84;44.67;95447.00;5052129;28;20298;-74
2023/07/12 11:13:32;;;;;;;13.02;7.40;;;;;;;31.81;45.18;95436.81;5033408;28;20217;-74
2023/07/12 11:16:06;;;;;;;11.85;7.30;;;;;;;31.83;45.22;95440.03;5038502;28;20977;-74
2023/07/12 11:18:35;;;;;;;14.70;7.30;;;;;;;31.94;44.64;95435.03;5047855;28;20226;-75
2023/07/12 11:21:24;;;;;;;13.80;7.22;;;;;;;32.07;43.55;95430.59;5021316;28;20230;-74